Time;durP1;ratioP1;P1;durP2;ratioP2;P2;SDS_P1;SDS_P2;PMS_P1;PMS_P2;Temp;Humidity;BMP_temperature;BMP_pressure;BME280_temperature;BME280_humidity;BME280_pressure;Samples;Min_cycle;Max_cycle;Signal;HPM_P1;HPM_P2
2022/02/26 00:01:42;;;;;;;6.85;4.85;;;;;;;6.10;83.85;99398.66;4121021;28;20211;-85
2022/02/26 00:03:46;;;;;;;10.50;4.70;;;;;;;6.08;83.62;99407.34;4123616;28;20201;-86
2022/02/26 00:05:49;;;;;;;10.43;4.50;;;;;;;6.01;83.56;99408.41;4103223;28;20570;-86
2022/02/26 00:07:53;;;;;;;8.88;4.40;;;;;;;6.00;83.05;99413.63;4120916;28;20288;-85
2022/02/26 00:09:56;;;;;;;7.80;4.07;;;;;;;5.96;83.42;99406.88;4124339;28;20748;-84
2022/02/26 00:11:59;;;;;;;5.95;3.88;;;;;;;5.95;83.36;99408.59;4132620;28;20297;-86
2022/02/26 00:14:05;;;;;;;6.88;3.47;;;;;;;5.89;83.06;99424.28;4108227;28;20205;-85
2022/02/26 00:16:08;;;;;;;11.05;3.85;;;;;;;5.87;82.95;99420.06;4125517;28;20214;-86
2022/02/26 00:18:14;;;;;;;8.32;4.00;;;;;;;5.84;83.42;99426.19;4137658;28;20212;-85
2022/02/26 00:20:17;;;;;;;8.23;4.40;;;;;;;5.84;83.54;99421.00;4104671;28;20286;-86
2022/02/26 00:22:21;;;;;;;7.60;3.65;;;;;;;5.85;83.71;99422.69;4120894;28;20208;-86
2022/02/26 00:24:25;;;;;;;6.82;4.13;;;;;;;5.85;83.97;99427.88;4125411;28;20212;-86
2022/02/26 00:26:29;;;;;;;8.93;4.20;;;;;;;5.87;84.06;99427.84;4122027;28;20274;-86
2022/02/26 00:28:33;;;;;;;7.03;4.32;;;;;;;5.88;84.10;99430.38;4120708;28;20690;-85
2022/02/26 00:30:36;;;;;;;7.95;3.72;;;;;;;5.87;83.46;99433.00;4118434;28;20303;-87
2022/02/26 00:32:39;;;;;;;10.52;4.45;;;;;;;5.82;83.66;99422.78;4101181;28;21049;-86
2022/02/26 00:34:42;;;;;;;8.63;4.30;;;;;;;5.80;84.03;99428.88;4119513;28;20273;-85
2022/02/26 00:36:46;;;;;;;6.90;4.10;;;;;;;5.80;83.81;99436.66;4103838;28;20692;-86
2022/02/26 00:38:49;;;;;;;8.70;4.40;;;;;;;5.72;84.04;99436.84;4119169;28;20253;-86
2022/02/26 00:40:54;;;;;;;6.22;4.00;;;;;;;5.71;83.67;99440.34;4118314;28;20316;-85
2022/02/26 00:42:57;;;;;;;6.40;4.40;;;;;;;5.65;83.62;99442.22;4115993;28;21032;-85
2022/02/26 00:45:00;;;;;;;9.75;4.70;;;;;;;5.61;83.39;99443.22;4107350;28;20835;-87
2022/02/26 00:47:04;;;;;;;9.80;6.47;;;;;;;5.60;84.39;99450.09;4118421;28;20247;-86
2022/02/26 00:51:28;;;;;;;11.02;4.38;;;;;;;5.53;84.67;99465.81;4117977;28;20707;-89
2022/02/26 00:53:34;;;;;;;6.47;3.88;;;;;;;5.52;83.94;99463.28;4123213;28;20204;-89
2022/02/26 00:55:38;;;;;;;9.55;4.20;;;;;;;5.50;84.61;99463.31;4117560;28;20208;-88
2022/02/26 00:57:43;;;;;;;7.68;4.40;;;;;;;5.51;84.59;99472.78;4121003;28;20220;-89
2022/02/26 00:59:46;;;;;;;9.05;4.28;;;;;;;5.51;84.58;99472.78;4125200;28;20250;-89
2022/02/26 01:01:49;;;;;;;5.40;3.72;;;;;;;5.49;84.08;99472.00;4125501;28;20563;-89
2022/02/26 01:03:53;;;;;;;7.35;4.53;;;;;;;5.47;83.82;99478.91;4119378;28;20200;-88
2022/02/26 01:05:57;;;;;;;9.70;4.43;;;;;;;5.48;84.29;99472.03;4107070;28;20223;-89
2022/02/26 01:08:00;;;;;;;8.77;3.58;;;;;;;5.46;84.44;99473.78;4117860;28;20210;-86
2022/02/26 01:10:09;;;;;;;5.13;3.70;;;;;;;5.48;84.07;99477.22;4123870;28;20701;-88
2022/02/26 01:12:12;;;;;;;9.60;3.67;;;;;;;5.46;85.08;99481.53;4103621;28;20215;-88
2022/02/26 01:14:17;;;;;;;9.18;4.45;;;;;;;5.45;83.90;99480.72;4117719;28;20248;-88
2022/02/26 01:16:20;;;;;;;8.88;4.63;;;;;;;5.46;84.24;99479.84;4104173;28;20217;-89
2022/02/26 01:18:23;;;;;;;10.57;4.07;;;;;;;5.45;84.77;99488.47;4121513;28;20679;-87
2022/02/26 01:20:27;;;;;;;9.65;4.47;;;;;;;5.46;85.50;99491.91;4123148;28;20207;-89
2022/02/26 01:22:32;;;;;;;9.88;4.32;;;;;;;5.44;85.44;99494.56;4117875;28;20207;-88
2022/02/26 01:24:35;;;;;;;9.50;4.72;;;;;;;5.44;85.01;99498.84;4118862;28;20200;-89
2022/02/26 01:26:40;;;;;;;6.63;4.38;;;;;;;5.42;85.40;99492.88;4106145;28;20271;-89
2022/02/26 01:28:43;;;;;;;7.65;4.05;;;;;;;5.43;85.15;99499.75;4106640;28;20217;-89
2022/02/26 01:30:47;;;;;;;9.90;4.60;;;;;;;5.41;85.65;99494.63;4123932;28;20287;-89
2022/02/26 01:32:50;;;;;;;12.88;4.80;;;;;;;5.39;85.67;99491.22;4118028;28;20207;-89
2022/02/26 01:34:53;;;;;;;7.00;3.72;;;;;;;5.42;84.55;99498.91;4122381;28;20248;-88
2022/02/26 01:36:56;;;;;;;10.90;4.15;;;;;;;5.40;85.27;99510.19;4118786;28;20207;-89
2022/02/26 01:39:00;;;;;;;9.07;4.45;;;;;;;5.37;85.54;99505.94;4117095;28;20667;-88
2022/02/26 01:41:04;;;;;;;10.13;5.55;;;;;;;5.41;85.33;99497.22;4118136;28;20205;-88
2022/02/26 01:43:08;;;;;;;8.45;5.68;;;;;;;5.41;85.33;99501.50;4120044;28;20206;-89
2022/02/26 01:45:12;;;;;;;11.18;4.82;;;;;;;5.40;85.09;99498.09;4117518;28;20211;-88
2022/02/26 01:47:16;;;;;;;6.40;3.85;;;;;;;5.37;85.05;99498.16;4116832;28;20297;-87
2022/02/26 01:49:20;;;;;;;8.25;4.43;;;;;;;5.37;85.51;99505.94;4122519;28;20226;-88
2022/02/26 01:51:24;;;;;;;6.53;3.72;;;;;;;5.34;85.11;99503.41;4123307;28;20230;-89
2022/02/26 01:53:27;;;;;;;9.35;4.80;;;;;;;5.31;85.27;99503.50;4120602;28;20211;-89
2022/02/26 01:55:30;;;;;;;11.02;4.80;;;;;;;5.25;85.36;99501.06;4113888;28;20204;-88
2022/02/26 01:57:33;;;;;;;9.60;4.47;;;;;;;5.24;84.75;99498.50;4120504;28;20655;-90
2022/02/26 01:59:36;;;;;;;9.88;5.82;;;;;;;5.23;85.14;99501.97;4122348;28;20203;-89
2022/02/26 02:01:39;;;;;;;9.07;4.75;;;;;;;5.23;84.67;99497.69;4120124;28;20643;-89
2022/02/26 02:03:46;;;;;;;9.82;5.30;;;;;;;5.20;84.73;99492.56;4120108;28;20219;-88
2022/02/26 02:05:49;;;;;;;8.05;5.25;;;;;;;5.17;85.21;99503.00;4121663;28;20215;-89
2022/02/26 02:07:52;;;;;;;9.30;5.45;;;;;;;5.15;85.81;99491.81;4121607;28;20288;-89
2022/02/26 02:09:56;;;;;;;10.77;5.03;;;;;;;5.13;85.75;99498.78;4121489;28;20213;-89
2022/02/26 02:11:59;;;;;;;8.68;5.20;;;;;;;5.13;85.41;99501.34;4118113;28;20265;-89
2022/02/26 02:14:02;;;;;;;11.60;5.45;;;;;;;5.12;86.06;99497.97;4121716;28;20203;-89
2022/02/26 02:16:08;;;;;;;10.20;5.05;;;;;;;5.13;85.14;99498.78;4122703;28;20698;-89
2022/02/26 02:18:12;;;;;;;8.70;5.93;;;;;;;5.14;85.95;99491.84;4103250;28;20221;-89
2022/02/26 02:20:17;;;;;;;10.55;5.15;;;;;;;5.17;86.27;99505.59;4120593;28;20235;-89
2022/02/26 02:22:21;;;;;;;9.23;4.88;;;;;;;5.15;85.23;99501.31;4123199;28;20670;-90
2022/02/26 02:24:25;;;;;;;7.43;4.65;;;;;;;5.14;86.33;99503.06;4114670;28;20218;-89
2022/02/26 02:26:29;;;;;;;16.33;5.75;;;;;;;5.14;86.49;99503.06;4102260;28;20287;-90
2022/02/26 02:28:35;;;;;;;7.93;4.65;;;;;;;5.14;85.48;99508.25;4116197;28;20269;-90
2022/02/26 02:30:39;;;;;;;7.82;4.60;;;;;;;5.13;85.58;99513.44;4103677;28;20267;-90
2022/02/26 02:32:42;;;;;;;10.38;5.03;;;;;;;5.13;85.75;99505.69;4117059;28;20233;-89
2022/02/26 02:34:45;;;;;;;9.00;4.13;;;;;;;5.14;85.80;99510.81;4122245;28;20211;-89
2022/02/26 02:36:49;;;;;;;11.82;5.70;;;;;;;5.15;85.63;99509.91;4205981;28;20208;-90
2022/02/26 02:38:55;;;;;;;6.97;4.65;;;;;;;5.18;85.51;99512.44;4121002;28;20628;-89
2022/02/26 02:40:59;;;;;;;11.90;5.50;;;;;;;5.18;86.67;99507.25;4123839;28;20236;-89
2022/02/26 02:43:02;;;;;;;7.15;5.00;;;;;;;5.18;86.50;99515.00;4117739;28;20581;-90
2022/02/26 02:45:07;;;;;;;10.20;5.28;;;;;;;5.16;86.38;99509.03;4113764;28;20274;-88
2022/02/26 02:47:10;;;;;;;9.82;5.10;;;;;;;5.15;86.11;99509.91;4121090;28;20637;-89
2022/02/26 02:49:13;;;;;;;11.25;5.30;;;;;;;5.15;86.84;99512.50;4127002;28;20553;-89
2022/02/26 02:51:17;;;;;;;9.63;4.80;;;;;;;5.15;86.55;99512.50;4120077;28;21347;-89
2022/02/26 02:53:20;;;;;;;11.45;5.93;;;;;;;5.14;85.92;99518.59;4119423;28;20601;-89
2022/02/26 02:55:25;;;;;;;9.05;5.43;;;;;;;5.15;86.14;99514.25;4114090;28;20207;-87
2022/02/26 02:57:28;;;;;;;8.35;5.38;;;;;;;5.16;86.26;99518.53;4104233;28;20234;-87
2022/02/26 02:59:31;;;;;;;9.68;5.90;;;;;;;5.15;86.02;99522.84;4124217;28;20690;-87
2022/02/26 03:01:34;;;;;;;10.82;5.63;;;;;;;5.14;86.42;99526.34;4126846;28;20235;-87
2022/02/26 03:03:38;;;;;;;7.07;5.47;;;;;;;5.14;86.47;99521.16;4115442;28;20200;-87
2022/02/26 03:05:41;;;;;;;11.07;5.50;;;;;;;5.14;85.64;99528.06;4110988;28;20783;-86
2022/02/26 03:07:44;;;;;;;10.15;5.88;;;;;;;5.13;86.12;99529.78;4106423;28;20265;-88
2022/02/26 03:09:47;;;;;;;9.55;5.72;;;;;;;5.14;85.31;99534.09;4124983;28;20254;-86
2022/02/26 03:11:52;;;;;;;9.27;6.00;;;;;;;5.13;85.25;99540.13;4105440;28;20797;-86
2022/02/26 03:13:55;;;;;;;6.97;5.05;;;;;;;5.09;85.91;99535.06;4105932;28;20700;-87
2022/02/26 03:15:58;;;;;;;11.13;6.88;;;;;;;5.09;86.54;99540.25;4125357;28;20219;-86
2022/02/26 03:18:01;;;;;;;9.95;5.63;;;;;;;5.10;86.38;99548.84;4121585;28;20726;-90
2022/02/26 03:20:06;;;;;;;10.73;5.90;;;;;;;5.10;86.71;99541.09;4124884;28;20215;-88
2022/02/26 03:22:13;;;;;;;9.63;6.60;;;;;;;5.06;86.77;99536.91;4120883;28;20200;-90
2022/02/26 03:24:16;;;;;;;9.02;5.90;;;;;;;5.04;86.24;99542.09;4123166;28;20250;-89
2022/02/26 03:26:19;;;;;;;20.95;7.65;;;;;;;5.04;87.16;99546.44;4122776;28;20277;-90
2022/02/26 03:28:23;;;;;;;10.68;6.45;;;;;;;5.02;86.76;99548.19;4126124;28;20211;-89
2022/02/26 03:30:27;;;;;;;7.90;6.05;;;;;;;5.02;86.16;99554.22;4122894;28;20215;-87
2022/02/26 03:32:33;;;;;;;9.90;6.40;;;;;;;5.02;86.32;99555.94;4109395;28;20729;-88
2022/02/26 03:34:37;;;;;;;13.23;6.40;;;;;;;5.03;86.83;99563.66;4105379;28;20239;-87
2022/02/26 03:36:40;;;;;;;12.40;6.50;;;;;;;5.01;87.01;99554.25;4105334;28;20243;-88
2022/02/26 03:38:43;;;;;;;14.18;7.40;;;;;;;5.01;87.22;99570.59;4119653;28;20246;-88
2022/02/26 03:40:46;;;;;;;12.82;7.03;;;;;;;5.02;86.89;99564.56;4117599;28;20208;-87
2022/02/26 03:42:49;;;;;;;13.25;5.60;;;;;;;5.01;85.84;99562.00;4118322;28;20210;-87
2022/02/26 03:44:53;;;;;;;9.45;5.93;;;;;;;4.93;85.19;99564.75;4117918;28;20219;-87
2022/02/26 03:46:57;;;;;;;10.30;6.10;;;;;;;4.87;85.87;99564.03;4120013;28;20208;-88
2022/02/26 03:49:00;;;;;;;9.18;5.20;;;;;;;4.77;85.84;99563.38;4116239;28;20693;-87
2022/02/26 03:51:05;;;;;;;8.85;5.45;;;;;;;4.71;85.18;99560.09;4120793;28;20260;-87
2022/02/26 03:53:09;;;;;;;8.77;5.53;;;;;;;4.67;85.87;99561.03;4106172;28;20219;-87
2022/02/26 03:55:13;;;;;;;9.75;5.47;;;;;;;4.64;85.27;99563.69;4123842;28;20732;-87
2022/02/26 03:57:22;;;;;;;9.43;5.82;;;;;;;4.65;85.29;99556.81;4106110;28;20253;-86
2022/02/26 03:59:25;;;;;;;11.77;6.25;;;;;;;4.61;85.88;99550.00;4103228;28;20637;-88
2022/02/26 04:01:29;;;;;;;14.32;6.78;;;;;;;4.62;86.72;99552.53;4123439;28;20217;-88
2022/02/26 04:03:33;;;;;;;12.75;6.60;;;;;;;4.59;86.04;99560.38;4118024;28;20218;-88
2022/02/26 04:05:37;;;;;;;13.35;6.40;;;;;;;4.59;86.33;99565.53;4123150;28;20212;-88
2022/02/26 04:07:42;;;;;;;11.60;6.20;;;;;;;4.61;87.45;99571.50;4121441;28;20204;-86
2022/02/26 04:09:45;;;;;;;17.77;6.88;;;;;;;4.65;85.98;99573.16;4118673;28;20211;-87
2022/02/26 04:11:48;;;;;;;8.98;5.95;;;;;;;4.62;86.43;99575.78;4121639;28;20230;-87
2022/02/26 04:13:51;;;;;;;12.68;6.13;;;;;;;4.59;85.37;99578.44;4126010;28;20207;-87
2022/02/26 04:15:54;;;;;;;9.70;5.75;;;;;;;4.47;86.06;99578.69;4106961;28;20216;-87
2022/02/26 04:17:59;;;;;;;9.73;6.68;;;;;;;4.40;86.10;99587.44;4106060;28;20542;-87
2022/02/26 04:20:02;;;;;;;8.75;5.85;;;;;;;4.36;85.68;99583.22;4120874;28;20213;-88
2022/02/26 04:22:05;;;;;;;8.30;5.45;;;;;;;4.33;86.36;99587.59;4126154;28;20233;-87
2022/02/26 04:24:11;;;;;;;9.27;5.47;;;;;;;4.31;86.57;99597.94;4123673;28;20311;-86
2022/02/26 04:26:14;;;;;;;7.95;5.32;;;;;;;4.29;86.88;99591.97;4123310;28;20644;-87
2022/02/26 04:28:18;;;;;;;9.32;5.95;;;;;;;4.28;86.72;99587.72;4124007;28;20293;-88
2022/02/26 04:30:21;;;;;;;8.77;5.93;;;;;;;4.28;87.43;99590.28;4122790;28;20194;-86
2022/02/26 04:32:26;;;;;;;11.43;6.07;;;;;;;4.31;87.01;99594.53;4117771;28;20228;-87
2022/02/26 04:34:32;;;;;;;12.27;6.60;;;;;;;4.32;86.68;99591.91;4109577;28;20210;-87
2022/02/26 04:36:36;;;;;;;9.50;6.22;;;;;;;4.32;86.99;99596.22;4132656;28;20683;-87
2022/02/26 04:38:39;;;;;;;10.15;6.15;;;;;;;4.31;86.96;99597.94;4189530;28;20208;-87
2022/02/26 04:40:42;;;;;;;16.05;7.10;;;;;;;4.32;87.67;99594.50;4123459;28;20328;-88
2022/02/26 04:42:45;;;;;;;14.10;7.15;;;;;;;4.38;86.71;99604.69;4120161;28;20205;-87
2022/02/26 04:44:49;;;;;;;12.10;7.20;;;;;;;4.41;87.44;99598.63;4122273;28;20303;-88
2022/02/26 04:46:52;;;;;;;14.52;7.68;;;;;;;4.46;87.59;99605.38;4103940;28;20574;-88
2022/02/26 04:48:55;;;;;;;13.88;7.90;;;;;;;4.46;87.61;99602.81;4118141;28;20236;-87
2022/02/26 04:51:00;;;;;;;13.73;7.55;;;;;;;4.45;87.20;99601.13;4105002;28;20203;-88
2022/02/26 04:53:03;;;;;;;12.75;7.15;;;;;;;4.45;87.69;99603.72;4119492;28;20238;-88
2022/02/26 04:55:08;;;;;;;9.85;6.38;;;;;;;4.42;88.03;99598.59;4120704;28;20220;-88
2022/02/26 04:57:11;;;;;;;17.05;7.15;;;;;;;4.37;86.49;99608.16;4121523;28;20203;-88
2022/02/26 04:59:15;;;;;;;14.40;7.65;;;;;;;4.35;87.53;99607.34;4122573;28;20222;-88
2022/02/26 05:01:18;;;;;;;11.02;6.40;;;;;;;4.36;87.43;99611.63;4120593;28;20218;-86
2022/02/26 05:03:21;;;;;;;12.13;7.90;;;;;;;4.34;87.67;99613.38;4119055;28;20211;-87
2022/02/26 05:05:27;;;;;;;10.13;6.28;;;;;;;4.37;88.73;99622.81;4116931;28;20214;-86
2022/02/26 05:07:31;;;;;;;9.82;6.97;;;;;;;4.34;87.00;99618.53;4119580;28;20507;-88
2022/02/26 05:09:36;;;;;;;8.90;6.53;;;;;;;4.32;87.87;99617.72;4117156;28;20257;-87
2022/02/26 05:11:39;;;;;;;11.40;7.38;;;;;;;4.36;87.15;99624.53;4119538;28;20241;-87
2022/02/26 05:13:42;;;;;;;14.95;6.82;;;;;;;4.40;87.74;99627.91;4121315;28;20263;-87
2022/02/26 05:15:45;;;;;;;16.77;7.60;;;;;;;4.43;87.55;99625.25;4103349;28;20220;-87
2022/02/26 05:17:49;;;;;;;16.15;6.60;;;;;;;4.46;88.03;99618.31;4124480;28;20295;-87
2022/02/26 05:19:52;;;;;;;9.93;7.25;;;;;;;4.50;87.97;99632.88;4122779;28;20579;-85
2022/02/26 05:21:56;;;;;;;12.13;8.20;;;;;;;4.49;87.71;99628.56;4133410;28;20210;-87
2022/02/26 05:24:00;;;;;;;13.38;7.80;;;;;;;4.51;88.89;99632.00;4119248;28;20238;-85
2022/02/26 05:26:03;;;;;;;12.00;7.03;;;;;;;4.59;88.45;99634.44;4136790;28;20501;-88
2022/02/26 05:28:06;;;;;;;13.57;8.30;;;;;;;4.62;89.23;99634.38;4120907;28;20254;-87
2022/02/26 05:30:12;;;;;;;13.95;8.20;;;;;;;4.63;87.74;99639.50;4119245;28;20203;-86
2022/02/26 05:32:15;;;;;;;10.95;7.22;;;;;;;4.62;88.03;99637.78;4203220;28;20673;-87
2022/02/26 05:34:18;;;;;;;11.40;7.20;;;;;;;4.61;88.69;99636.06;4117898;28;20272;-87
2022/02/26 05:36:21;;;;;;;11.93;8.07;;;;;;;4.64;87.40;99638.59;4120917;28;20234;-87
2022/02/26 05:38:24;;;;;;;13.30;7.43;;;;;;;4.68;87.24;99642.84;4117113;28;20241;-87
2022/02/26 05:40:29;;;;;;;11.77;7.60;;;;;;;4.68;87.89;99645.41;4100660;28;20625;-85
2022/02/26 05:42:32;;;;;;;20.45;8.20;;;;;;;4.68;87.85;99643.69;4121923;28;20239;-87
2022/02/26 05:44:35;;;;;;;12.10;7.50;;;;;;;4.67;88.19;99648.88;4104303;28;20212;-87
2022/02/26 05:46:39;;;;;;;12.75;6.15;;;;;;;4.63;87.93;99649.84;4118060;28;20562;-88
2022/02/26 05:48:42;;;;;;;17.23;7.78;;;;;;;4.58;87.32;99654.22;4118051;28;20217;-87
2022/02/26 05:50:48;;;;;;;13.75;8.23;;;;;;;4.60;87.46;99656.78;4125821;28;20211;-89
2022/02/26 05:52:51;;;;;;;11.23;6.95;;;;;;;4.57;87.69;99662.88;4120860;28;20231;-88
2022/02/26 05:54:54;;;;;;;11.75;7.40;;;;;;;4.56;87.62;99652.56;4122084;28;20222;-88
2022/02/26 05:56:58;;;;;;;10.20;7.25;;;;;;;4.57;88.11;99662.88;4112019;28;20215;-90
2022/02/26 05:59:01;;;;;;;9.50;7.57;;;;;;;4.58;87.70;99674.03;4119311;28;20216;-87
2022/02/26 06:01:04;;;;;;;15.80;8.35;;;;;;;4.62;88.44;99671.38;4115971;28;20747;-88
2022/02/26 06:03:08;;;;;;;12.68;7.55;;;;;;;4.62;88.44;99671.38;4118607;28;20203;-87
2022/02/26 06:05:11;;;;;;;12.27;6.90;;;;;;;4.63;88.02;99675.66;4104808;28;20204;-87
2022/02/26 06:07:14;;;;;;;14.00;7.80;;;;;;;4.59;88.27;99674.00;4119097;28;20298;-87
2022/02/26 06:09:17;;;;;;;15.82;8.55;;;;;;;4.55;88.41;99682.69;4098601;28;20213;-86
2022/02/26 06:11:20;;;;;;;18.77;8.30;;;;;;;4.54;87.45;99686.19;4117532;28;20231;-87
2022/02/26 06:13:25;;;;;;;11.95;7.93;;;;;;;4.55;88.59;99687.84;4112746;28;20245;-87
2022/02/26 06:15:28;;;;;;;13.05;8.55;;;;;;;4.58;87.73;99689.53;4118734;28;20848;-87
2022/02/26 06:17:31;;;;;;;13.48;8.60;;;;;;;4.57;88.16;99683.53;4117992;28;20919;-87
2022/02/26 06:19:34;;;;;;;14.68;9.00;;;;;;;4.58;87.90;99699.88;4121307;28;22316;-87
2022/02/26 06:21:37;;;;;;;14.43;8.05;;;;;;;4.59;88.24;99701.59;4119922;28;20208;-87
2022/02/26 06:23:40;;;;;;;13.40;7.53;;;;;;;4.59;88.54;99696.41;4101840;28;20231;-87
2022/02/26 06:25:43;;;;;;;17.83;8.70;;;;;;;4.64;88.19;99694.59;4101324;28;24212;-86
2022/02/26 06:27:46;;;;;;;16.60;8.65;;;;;;;4.65;88.57;99697.16;4118145;28;20217;-87
2022/02/26 06:29:51;;;;;;;16.02;8.90;;;;;;;4.66;88.31;99701.44;4124181;28;21136;-87
2022/02/26 06:31:54;;;;;;;17.45;8.18;;;;;;;4.67;88.52;99704.88;4119187;28;20738;-87
2022/02/26 06:33:57;;;;;;;14.68;8.52;;;;;;;4.69;87.23;99707.38;4122932;28;20611;-87
2022/02/26 06:36:02;;;;;;;11.80;8.23;;;;;;;4.69;88.48;99711.69;4121957;28;20206;-87
2022/02/26 06:38:05;;;;;;;13.05;7.47;;;;;;;4.69;87.14;99709.09;4121365;28;20214;-88
2022/02/26 06:40:09;;;;;;;12.93;8.60;;;;;;;4.68;87.78;99709.16;4121240;28;20211;-88
2022/02/26 06:42:12;;;;;;;12.98;8.65;;;;;;;4.73;87.60;99713.34;4123862;28;20750;-88
2022/02/26 06:44:15;;;;;;;15.45;9.05;;;;;;;4.74;87.65;99712.47;4122112;28;20219;-87
2022/02/26 06:46:20;;;;;;;14.15;8.35;;;;;;;4.75;88.06;99717.59;4113060;28;20199;-89
2022/02/26 06:48:23;;;;;;;15.52;8.63;;;;;;;4.78;88.39;99721.84;4130546;28;20287;-88
2022/02/26 06:50:26;;;;;;;17.67;9.00;;;;;;;4.78;87.52;99729.59;4110131;28;20214;-88
2022/02/26 06:52:29;;;;;;;12.88;8.05;;;;;;;4.82;87.53;99726.91;4109970;28;20207;-88
2022/02/26 06:54:33;;;;;;;13.95;8.80;;;;;;;4.80;86.99;99738.19;4123413;28;20269;-86
2022/02/26 06:56:36;;;;;;;13.00;8.70;;;;;;;4.77;87.45;99738.25;4126473;28;20210;-87
2022/02/26 06:58:39;;;;;;;14.90;8.88;;;;;;;4.80;88.46;99741.63;4123200;28;20205;-87
2022/02/26 07:00:42;;;;;;;13.60;8.70;;;;;;;4.83;88.48;99736.38;4127554;28;20583;-88
2022/02/26 07:02:47;;;;;;;15.15;9.10;;;;;;;4.87;88.06;99740.63;4126969;28;20216;-87
2022/02/26 07:04:50;;;;;;;16.70;8.93;;;;;;;4.91;88.05;99746.56;4125091;28;20214;-88
2022/02/26 07:06:53;;;;;;;14.18;8.88;;;;;;;4.94;87.79;99746.53;4103053;28;20217;-86
2022/02/26 07:08:57;;;;;;;13.57;8.07;;;;;;;4.96;87.80;99745.63;4118887;28;20250;-90
2022/02/26 07:11:00;;;;;;;13.80;9.38;;;;;;;5.01;87.09;99743.78;4102668;28;20221;-87
2022/02/26 07:13:03;;;;;;;13.70;9.32;;;;;;;5.02;88.05;99747.22;4106516;28;20212;-86
2022/02/26 07:15:07;;;;;;;14.02;8.10;;;;;;;5.02;86.79;99752.38;4101872;28;20266;-83
2022/02/26 07:17:15;;;;;;;14.63;9.38;;;;;;;5.03;87.33;99751.50;4117016;28;20219;-87
2022/02/26 07:19:19;;;;;;;13.43;9.13;;;;;;;5.03;87.90;99756.69;4125958;28;20215;-86
2022/02/26 07:21:22;;;;;;;12.60;8.75;;;;;;;5.06;88.09;99762.63;4123353;28;20429;-86
2022/02/26 07:23:25;;;;;;;13.25;10.10;;;;;;;5.11;87.03;99759.94;4121721;28;20206;-89
2022/02/26 07:25:28;;;;;;;13.10;8.15;;;;;;;5.15;88.06;99760.69;4119663;28;20256;-87
2022/02/26 07:27:31;;;;;;;13.13;8.95;;;;;;;5.19;87.25;99764.94;4126440;28;20293;-88
2022/02/26 07:29:37;;;;;;;15.30;9.23;;;;;;;5.24;87.24;99760.50;4118889;28;20212;-87
2022/02/26 07:31:40;;;;;;;19.33;10.38;;;;;;;5.29;87.38;99758.72;4124193;28;20222;-86
2022/02/26 07:33:43;;;;;;;14.82;10.25;;;;;;;5.36;87.60;99770.59;4131317;28;20723;-86
2022/02/26 07:35:48;;;;;;;15.57;10.02;;;;;;;5.42;87.78;99772.22;4125852;28;20219;-87
2022/02/26 07:37:51;;;;;;;14.38;10.05;;;;;;;5.48;87.23;99778.13;4123485;28;20207;-85
2022/02/26 07:39:55;;;;;;;21.15;10.70;;;;;;;5.53;87.55;99778.00;4119491;28;20756;-85
2022/02/26 07:41:58;;;;;;;16.00;11.20;;;;;;;5.60;86.63;99772.69;4120641;28;20212;-85
2022/02/26 07:44:01;;;;;;;20.20;11.73;;;;;;;5.66;87.09;99780.31;4106971;28;20235;-86
2022/02/26 07:46:05;;;;;;;19.08;10.90;;;;;;;5.74;86.85;99781.00;4123225;28;20212;-87
2022/02/26 07:48:08;;;;;;;18.02;11.23;;;;;;;5.82;87.33;99781.72;4122701;28;20215;-86
2022/02/26 07:50:11;;;;;;;18.05;11.73;;;;;;;5.89;87.06;99786.69;4101618;28;20206;-90
2022/02/26 07:52:16;;;;;;;16.10;10.65;;;;;;;5.97;86.47;99784.81;4108881;28;20627;-88
2022/02/26 07:54:19;;;;;;;17.65;11.52;;;;;;;6.03;86.56;99791.56;4106741;28;20228;-87
2022/02/26 07:56:24;;;;;;;17.25;10.80;;;;;;;6.09;86.18;99794.88;4126835;28;20216;-86
2022/02/26 07:58:29;;;;;;;17.02;10.75;;;;;;;6.16;86.07;99796.41;4125911;28;20652;-85
2022/02/26 08:00:32;;;;;;;16.30;11.15;;;;;;;6.29;86.00;99798.69;4111617;28;20197;-85
2022/02/26 08:02:35;;;;;;;25.75;12.30;;;;;;;6.38;85.84;99805.38;4140827;28;20226;-85
2022/02/26 08:04:38;;;;;;;15.95;10.00;;;;;;;6.41;85.54;99803.56;4125485;28;20196;-84
2022/02/26 08:06:42;;;;;;;14.88;10.15;;;;;;;6.48;86.08;99807.72;4128193;28;20215;-85
2022/02/26 08:08:47;;;;;;;19.42;10.23;;;;;;;6.52;85.88;99808.47;4135171;28;20258;-84
2022/02/26 08:10:50;;;;;;;25.40;11.80;;;;;;;6.57;85.17;99812.69;4122609;28;20207;-84
2022/02/26 08:12:54;;;;;;;15.73;10.88;;;;;;;6.57;85.05;99813.50;4123799;28;20208;-85
2022/02/26 08:14:57;;;;;;;14.23;10.77;;;;;;;6.49;84.07;99817.19;4109497;28;20728;-84
2022/02/26 08:17:00;;;;;;;16.08;9.63;;;;;;;6.45;84.14;99810.38;4121850;28;20647;-83
2022/02/26 08:19:03;;;;;;;13.73;10.40;;;;;;;6.42;83.83;99814.78;4123811;28;20223;-86
2022/02/26 08:21:06;;;;;;;19.98;11.05;;;;;;;6.40;84.76;99819.16;4127613;28;20218;-86
2022/02/26 08:23:09;;;;;;;14.40;10.57;;;;;;;6.41;85.05;99824.28;4112729;28;20247;-86
2022/02/26 08:25:14;;;;;;;19.77;11.70;;;;;;;6.47;84.34;99826.72;4121472;28;20219;-87
2022/02/26 08:27:17;;;;;;;19.20;10.90;;;;;;;6.48;84.84;99819.81;4115994;28;20764;-87
2022/02/26 08:29:20;;;;;;;17.88;10.15;;;;;;;6.49;84.87;99819.75;4128860;28;20270;-87
2022/02/26 08:31:23;;;;;;;17.17;11.35;;;;;;;6.51;84.42;99818.00;4111568;28;20267;-88
2022/02/26 08:33:26;;;;;;;13.90;9.68;;;;;;;6.52;84.17;99817.09;4128455;28;20197;-87
2022/02/26 08:35:29;;;;;;;16.02;10.60;;;;;;;6.48;84.75;99825.84;4118731;28;20224;-85
2022/02/26 08:37:35;;;;;;;19.25;12.60;;;;;;;6.51;84.81;99817.13;4123405;28;20201;-85
2022/02/26 08:39:38;;;;;;;24.25;12.00;;;;;;;6.59;84.40;99823.84;4127844;28;20223;-87
2022/02/26 08:41:43;;;;;;;20.95;10.93;;;;;;;6.65;84.64;99821.94;4119605;28;20208;-85
2022/02/26 08:43:46;;;;;;;19.15;9.70;;;;;;;6.73;84.26;99825.19;4194647;28;20207;-85
2022/02/26 08:45:49;;;;;;;14.90;11.30;;;;;;;6.81;83.30;99819.81;4124922;28;20207;-86
2022/02/26 08:47:53;;;;;;;19.67;10.70;;;;;;;6.88;83.84;99827.38;4104365;28;20198;-86
2022/02/26 08:49:56;;;;;;;17.52;10.80;;;;;;;6.97;82.76;99824.56;4126999;28;20215;-86
2022/02/26 08:51:59;;;;;;;17.25;10.38;;;;;;;7.07;83.04;99828.63;4126858;28;20211;-86
2022/02/26 08:54:05;;;;;;;16.15;10.20;;;;;;;7.14;82.03;99823.22;4135240;28;20631;-86
2022/02/26 08:56:08;;;;;;;16.65;10.57;;;;;;;7.26;81.82;99820.31;4115455;28;20201;-86
2022/02/26 08:58:13;;;;;;;16.05;9.75;;;;;;;7.29;82.33;99820.22;4127683;28;20301;-86
2022/02/26 09:00:17;;;;;;;15.25;9.95;;;;;;;7.32;81.50;99824.44;4127403;28;20315;-84
2022/02/26 09:02:20;;;;;;;16.40;10.07;;;;;;;7.36;81.50;99826.91;4129508;28;20210;-84
2022/02/26 09:04:23;;;;;;;20.60;10.05;;;;;;;7.38;80.86;99822.56;4114932;28;20204;-84
2022/02/26 09:06:27;;;;;;;15.15;9.45;;;;;;;7.29;78.74;99825.41;4122994;28;20202;-84
2022/02/26 09:08:31;;;;;;;16.90;9.27;;;;;;;7.19;78.74;99818.75;4118669;28;20218;-85
2022/02/26 09:10:34;;;;;;;14.20;8.73;;;;;;;7.23;79.53;99822.97;4124187;28;20208;-85
2022/02/26 09:12:37;;;;;;;14.15;8.65;;;;;;;7.32;79.62;99816.66;4126152;28;20205;-85
2022/02/26 09:14:42;;;;;;;21.75;9.00;;;;;;;7.41;80.25;99813.81;4133507;28;20223;-85
2022/02/26 09:16:46;;;;;;;15.00;7.75;;;;;;;7.54;79.51;99810.84;4128253;28;20220;-85
2022/02/26 09:18:50;;;;;;;12.13;7.10;;;;;;;7.65;77.64;99803.56;4133981;28;20205;-84
2022/02/26 09:20:53;;;;;;;10.40;7.53;;;;;;;7.76;78.88;99815.34;4127407;28;20205;-86
2022/02/26 09:22:56;;;;;;;15.60;8.13;;;;;;;7.75;80.09;99812.81;4122427;28;20235;-86
2022/02/26 09:25:00;;;;;;;15.02;8.07;;;;;;;7.81;79.52;99810.88;4130629;28;20214;-86
2022/02/26 09:27:03;;;;;;;11.93;7.07;;;;;;;7.85;77.21;99812.50;4126214;28;20217;-85
2022/02/26 09:29:06;;;;;;;13.77;6.80;;;;;;;7.86;77.20;99814.16;4123545;28;20211;-84
2022/02/26 09:31:12;;;;;;;16.45;6.90;;;;;;;7.87;76.77;99810.69;4127491;28;20228;-87
2022/02/26 09:33:15;;;;;;;14.30;6.32;;;;;;;7.88;74.75;99809.78;4101665;28;20605;-85
2022/02/26 09:35:18;;;;;;;11.43;5.80;;;;;;;7.89;75.45;99806.28;4126207;28;20228;-88
2022/02/26 09:37:21;;;;;;;14.70;6.95;;;;;;;7.93;74.95;99807.06;4135182;28;20271;-89
2022/02/26 09:39:25;;;;;;;11.77;6.32;;;;;;;8.01;76.33;99814.56;4129587;28;20208;-88
2022/02/26 09:41:28;;;;;;;11.85;4.85;;;;;;;8.07;72.26;99809.19;4126129;28;20573;-86
2022/02/26 09:43:31;;;;;;;13.20;5.40;;;;;;;8.08;73.64;99812.63;4124296;28;20238;-86
2022/02/26 09:45:34;;;;;;;10.52;4.80;;;;;;;8.08;73.21;99820.44;4105508;28;20275;-86